Quixeramobim, Brazil
Current Conditions -  °F | °C
As of 11:00 AM on Thursday 27 Nov 2014 (Local Time) from SBFZ Reporting Station
Scattered Clouds Scattered Clouds  
Wind Chill: 84°   Ceiling: Unl
Heat Index: 87°   Visibility: 6mi
Dew Point: 68°   Wind: 22mph
Humidity: 58%   Direction: 120°ESE
Pressure: 29.91"   Gusts: NA
Location:  5.19°S, 39.3°W
Report Text: SBFZ 271400Z 12019KT 9999 SCT025 29/20 Q1013
Loading
Personal Weather Stations






























Interactive Weather Map New forecast layout! Learn more

10-Day Weather Forecast

Advertisements
Track Severe Weather on mobile